sensor_id;sensor_type;location;lat;lon;timestamp;P1;durP1;ratioP1;P2;durP2;ratioP2
41925;SDS011;27615;51.826;5.692;2022-12-07T00:00:41;5.28;;;3.50;;
41925;SDS011;27615;51.826;5.692;2022-12-07T00:03:06;7.82;;;3.90;;
41925;SDS011;27615;51.826;5.692;2022-12-07T00:05:32;6.18;;;4.00;;
41925;SDS011;27615;51.826;5.692;2022-12-07T00:07:57;6.07;;;3.60;;
41925;SDS011;27615;51.826;5.692;2022-12-07T00:10:23;5.57;;;3.78;;
41925;SDS011;27615;51.826;5.692;2022-12-07T00:12:48;3.75;;;3.20;;
41925;SDS011;27615;51.826;5.692;2022-12-07T00:15:15;6.90;;;3.15;;
41925;SDS011;27615;51.826;5.692;2022-12-07T00:17:40;5.60;;;3.17;;
41925;SDS011;27615;51.826;5.692;2022-12-07T00:20:06;5.00;;;2.90;;
41925;SDS011;27615;51.826;5.692;2022-12-07T00:22:32;5.15;;;3.53;;
41925;SDS011;27615;51.826;5.692;2022-12-07T00:24:57;5.20;;;3.95;;
41925;SDS011;27615;51.826;5.692;2022-12-07T00:27:23;5.28;;;3.72;;
41925;SDS011;27615;51.826;5.692;2022-12-07T00:29:48;5.05;;;3.53;;
41925;SDS011;27615;51.826;5.692;2022-12-07T00:32:14;5.88;;;4.13;;
41925;SDS011;27615;51.826;5.692;2022-12-07T00:34:39;4.43;;;2.92;;
41925;SDS011;27615;51.826;5.692;2022-12-07T00:37:05;6.38;;;3.42;;
41925;SDS011;27615;51.826;5.692;2022-12-07T00:39:30;4.68;;;3.35;;
41925;SDS011;27615;51.826;5.692;2022-12-07T00:41:56;4.50;;;3.00;;
41925;SDS011;27615;51.826;5.692;2022-12-07T00:44:21;4.22;;;3.45;;
41925;SDS011;27615;51.826;5.692;2022-12-07T00:46:47;6.03;;;2.78;;
41925;SDS011;27615;51.826;5.692;2022-12-07T00:49:12;4.40;;;2.65;;
41925;SDS011;27615;51.826;5.692;2022-12-07T00:51:38;4.38;;;2.60;;
41925;SDS011;27615;51.826;5.692;2022-12-07T00:54:03;3.80;;;2.67;;
41925;SDS011;27615;51.826;5.692;2022-12-07T00:56:29;6.28;;;3.63;;
41925;SDS011;27615;51.826;5.692;2022-12-07T00:58:56;5.13;;;3.13;;
41925;SDS011;27615;51.826;5.692;2022-12-07T01:01:23;5.03;;;2.97;;
41925;SDS011;27615;51.826;5.692;2022-12-07T01:03:50;4.50;;;2.97;;
41925;SDS011;27615;51.826;5.692;2022-12-07T01:06:16;4.70;;;3.10;;
41925;SDS011;27615;51.826;5.692;2022-12-07T01:08:43;4.07;;;2.90;;
41925;SDS011;27615;51.826;5.692;2022-12-07T01:11:09;4.18;;;2.75;;
41925;SDS011;27615;51.826;5.692;2022-12-07T01:13:38;4.30;;;2.95;;
41925;SDS011;27615;51.826;5.692;2022-12-07T01:16:05;4.70;;;2.70;;
41925;SDS011;27615;51.826;5.692;2022-12-07T01:18:33;2.45;;;2.03;;
41925;SDS011;27615;51.826;5.692;2022-12-07T01:23:30;3.70;;;2.30;;
41925;SDS011;27615;51.826;5.692;2022-12-07T01:25:57;5.35;;;2.35;;
41925;SDS011;27615;51.826;5.692;2022-12-07T01:28:24;4.75;;;3.03;;
41925;SDS011;27615;51.826;5.692;2022-12-07T01:33:31;3.03;;;2.38;;
41925;SDS011;27615;51.826;5.692;2022-12-07T01:36:05;5.28;;;2.88;;
41925;SDS011;27615;51.826;5.692;2022-12-07T01:38:33;5.97;;;2.80;;
41925;SDS011;27615;51.826;5.692;2022-12-07T01:40:59;3.88;;;3.30;;
41925;SDS011;27615;51.826;5.692;2022-12-07T01:43:26;5.22;;;2.72;;
41925;SDS011;27615;51.826;5.692;2022-12-07T01:45:53;4.13;;;2.95;;
41925;SDS011;27615;51.826;5.692;2022-12-07T01:48:20;3.88;;;2.80;;
41925;SDS011;27615;51.826;5.692;2022-12-07T01:50:53;3.97;;;2.45;;
41925;SDS011;27615;51.826;5.692;2022-12-07T01:53:21;5.40;;;3.05;;
41925;SDS011;27615;51.826;5.692;2022-12-07T01:55:52;4.25;;;2.50;;
41925;SDS011;27615;51.826;5.692;2022-12-07T01:58:18;5.13;;;3.45;;
41925;SDS011;27615;51.826;5.692;2022-12-07T02:00:45;4.13;;;3.08;;
41925;SDS011;27615;51.826;5.692;2022-12-07T02:03:22;6.20;;;2.90;;
41925;SDS011;27615;51.826;5.692;2022-12-07T02:05:52;5.97;;;2.55;;
41925;SDS011;27615;51.826;5.692;2022-12-07T02:08:19;5.85;;;3.92;;
41925;SDS011;27615;51.826;5.692;2022-12-07T02:10:45;4.30;;;3.17;;
41925;SDS011;27615;51.826;5.692;2022-12-07T02:16:03;3.10;;;2.60;;
41925;SDS011;27615;51.826;5.692;2022-12-07T02:21:45;4.35;;;2.63;;
41925;SDS011;27615;51.826;5.692;2022-12-07T02:27:18;4.82;;;3.08;;
41925;SDS011;27615;51.826;5.692;2022-12-07T02:30:02;4.05;;;2.67;;
41925;SDS011;27615;51.826;5.692;2022-12-07T02:38:10;5.33;;;2.60;;
41925;SDS011;27615;51.826;5.692;2022-12-07T02:40:40;3.95;;;2.13;;
41925;SDS011;27615;51.826;5.692;2022-12-07T02:43:23;7.20;;;2.47;;
41925;SDS011;27615;51.826;5.692;2022-12-07T02:45:52;3.63;;;1.88;;
41925;SDS011;27615;51.826;5.692;2022-12-07T02:48:31;3.47;;;2.17;;
41925;SDS011;27615;51.826;5.692;2022-12-07T02:50:58;6.95;;;2.13;;
41925;SDS011;27615;51.826;5.692;2022-12-07T02:53:35;3.53;;;1.98;;
41925;SDS011;27615;51.826;5.692;2022-12-07T03:01:50;2.33;;;1.92;;
41925;SDS011;27615;51.826;5.692;2022-12-07T03:07:09;3.70;;;2.47;;
41925;SDS011;27615;51.826;5.692;2022-12-07T03:09:59;3.80;;;2.40;;
41925;SDS011;27615;51.826;5.692;2022-12-07T03:12:35;6.32;;;2.60;;
41925;SDS011;27615;51.826;5.692;2022-12-07T03:15:18;5.10;;;2.33;;
41925;SDS011;27615;51.826;5.692;2022-12-07T03:17:50;3.13;;;2.05;;
41925;SDS011;27615;51.826;5.692;2022-12-07T03:20:20;5.07;;;2.80;;
41925;SDS011;27615;51.826;5.692;2022-12-07T03:22:48;3.85;;;2.83;;
41925;SDS011;27615;51.826;5.692;2022-12-07T03:25:16;3.92;;;2.10;;
41925;SDS011;27615;51.826;5.692;2022-12-07T03:27:44;5.88;;;2.38;;
41925;SDS011;27615;51.826;5.692;2022-12-07T03:30:16;4.32;;;2.30;;
41925;SDS011;27615;51.826;5.692;2022-12-07T03:32:56;1.98;;;1.40;;
41925;SDS011;27615;51.826;5.692;2022-12-07T03:35:33;3.08;;;1.67;;
41925;SDS011;27615;51.826;5.692;2022-12-07T03:38:23;2.90;;;1.42;;
41925;SDS011;27615;51.826;5.692;2022-12-07T03:41:05;3.45;;;2.10;;
41925;SDS011;27615;51.826;5.692;2022-12-07T03:43:53;3.33;;;1.45;;
41925;SDS011;27615;51.826;5.692;2022-12-07T03:49:08;2.47;;;1.42;;
41925;SDS011;27615;51.826;5.692;2022-12-07T03:51:46;1.95;;;1.30;;
41925;SDS011;27615;51.826;5.692;2022-12-07T03:54:21;3.60;;;1.50;;
41925;SDS011;27615;51.826;5.692;2022-12-07T03:56:55;3.42;;;1.60;;
41925;SDS011;27615;51.826;5.692;2022-12-07T03:59:22;4.43;;;1.35;;
41925;SDS011;27615;51.826;5.692;2022-12-07T04:01:52;2.72;;;1.38;;
41925;SDS011;27615;51.826;5.692;2022-12-07T04:04:20;2.20;;;1.20;;
41925;SDS011;27615;51.826;5.692;2022-12-07T04:06:47;2.78;;;1.42;;
41925;SDS011;27615;51.826;5.692;2022-12-07T04:09:12;4.65;;;1.88;;
41925;SDS011;27615;51.826;5.692;2022-12-07T04:11:39;3.55;;;1.50;;
41925;SDS011;27615;51.826;5.692;2022-12-07T04:14:04;2.97;;;1.65;;
41925;SDS011;27615;51.826;5.692;2022-12-07T04:16:55;1.95;;;1.25;;
41925;SDS011;27615;51.826;5.692;2022-12-07T04:19:23;3.88;;;1.40;;
41925;SDS011;27615;51.826;5.692;2022-12-07T04:21:50;5.88;;;1.52;;
41925;SDS011;27615;51.826;5.692;2022-12-07T04:24:16;4.20;;;1.30;;
41925;SDS011;27615;51.826;5.692;2022-12-07T04:26:42;4.22;;;0.98;;
41925;SDS011;27615;51.826;5.692;2022-12-07T04:29:08;4.25;;;1.50;;
41925;SDS011;27615;51.826;5.692;2022-12-07T04:31:35;4.28;;;1.08;;
41925;SDS011;27615;51.826;5.692;2022-12-07T04:34:00;4.07;;;1.02;;
41925;SDS011;27615;51.826;5.692;2022-12-07T04:36:26;2.88;;;0.98;;
41925;SDS011;27615;51.826;5.692;2022-12-07T04:38:53;3.65;;;1.27;;
41925;SDS011;27615;51.826;5.692;2022-12-07T04:41:19;1.92;;;0.70;;
41925;SDS011;27615;51.826;5.692;2022-12-07T04:43:51;3.50;;;1.05;;
41925;SDS011;27615;51.826;5.692;2022-12-07T04:46:18;1.77;;;0.82;;
41925;SDS011;27615;51.826;5.692;2022-12-07T04:48:44;2.30;;;0.90;;
41925;SDS011;27615;51.826;5.692;2022-12-07T04:51:09;2.78;;;0.95;;
41925;SDS011;27615;51.826;5.692;2022-12-07T04:53:35;4.00;;;1.00;;
41925;SDS011;27615;51.826;5.692;2022-12-07T04:56:00;3.83;;;0.90;;
41925;SDS011;27615;51.826;5.692;2022-12-07T04:58:26;3.65;;;1.33;;
41925;SDS011;27615;51.826;5.692;2022-12-07T05:00:53;3.08;;;1.10;;
41925;SDS011;27615;51.826;5.692;2022-12-07T05:03:20;3.92;;;1.33;;
41925;SDS011;27615;51.826;5.692;2022-12-07T05:05:45;2.33;;;1.00;;
41925;SDS011;27615;51.826;5.692;2022-12-07T05:08:11;2.38;;;1.10;;
41925;SDS011;27615;51.826;5.692;2022-12-07T05:10:36;2.42;;;0.90;;
41925;SDS011;27615;51.826;5.692;2022-12-07T05:13:02;2.08;;;0.98;;
41925;SDS011;27615;51.826;5.692;2022-12-07T05:15:27;2.28;;;0.80;;
41925;SDS011;27615;51.826;5.692;2022-12-07T05:17:53;1.10;;;0.80;;
41925;SDS011;27615;51.826;5.692;2022-12-07T05:20:18;2.53;;;0.90;;
41925;SDS011;27615;51.826;5.692;2022-12-07T05:22:44;1.80;;;0.82;;
41925;SDS011;27615;51.826;5.692;2022-12-07T05:25:09;1.77;;;0.90;;
41925;SDS011;27615;51.826;5.692;2022-12-07T05:27:35;4.22;;;0.80;;
41925;SDS011;27615;51.826;5.692;2022-12-07T05:30:01;2.92;;;0.90;;
41925;SDS011;27615;51.826;5.692;2022-12-07T05:32:26;4.25;;;0.85;;
41925;SDS011;27615;51.826;5.692;2022-12-07T05:34:52;2.92;;;1.17;;
41925;SDS011;27615;51.826;5.692;2022-12-07T05:37:19;4.00;;;0.98;;
41925;SDS011;27615;51.826;5.692;2022-12-07T05:39:45;3.65;;;0.90;;
41925;SDS011;27615;51.826;5.692;2022-12-07T05:42:10;2.08;;;0.85;;
41925;SDS011;27615;51.826;5.692;2022-12-07T05:44:42;3.92;;;0.60;;
41925;SDS011;27615;51.826;5.692;2022-12-07T05:47:10;4.32;;;1.00;;
41925;SDS011;27615;51.826;5.692;2022-12-07T05:49:36;1.35;;;0.57;;
41925;SDS011;27615;51.826;5.692;2022-12-07T05:52:02;1.88;;;0.52;;
41925;SDS011;27615;51.826;5.692;2022-12-07T05:54:28;2.50;;;0.60;;
41925;SDS011;27615;51.826;5.692;2022-12-07T05:56:54;3.33;;;1.10;;
41925;SDS011;27615;51.826;5.692;2022-12-07T05:59:20;1.38;;;0.50;;
41925;SDS011;27615;51.826;5.692;2022-12-07T06:02:02;4.78;;;0.60;;
41925;SDS011;27615;51.826;5.692;2022-12-07T06:04:31;0.85;;;0.40;;
41925;SDS011;27615;51.826;5.692;2022-12-07T06:06:58;1.80;;;0.52;;
41925;SDS011;27615;51.826;5.692;2022-12-07T06:09:24;1.25;;;0.50;;
41925;SDS011;27615;51.826;5.692;2022-12-07T06:11:51;2.95;;;0.47;;
41925;SDS011;27615;51.826;5.692;2022-12-07T06:14:35;2.25;;;0.50;;
41925;SDS011;27615;51.826;5.692;2022-12-07T06:17:00;1.88;;;0.57;;
41925;SDS011;27615;51.826;5.692;2022-12-07T06:19:26;2.83;;;0.50;;
41925;SDS011;27615;51.826;5.692;2022-12-07T06:21:52;2.65;;;0.60;;
41925;SDS011;27615;51.826;5.692;2022-12-07T06:24:18;3.33;;;0.60;;
41925;SDS011;27615;51.826;5.692;2022-12-07T06:26:44;1.65;;;0.57;;
41925;SDS011;27615;51.826;5.692;2022-12-07T06:29:10;3.50;;;0.75;;
41925;SDS011;27615;51.826;5.692;2022-12-07T06:31:36;2.60;;;0.60;;
41925;SDS011;27615;51.826;5.692;2022-12-07T06:34:03;2.85;;;0.80;;
41925;SDS011;27615;51.826;5.692;2022-12-07T06:36:31;4.00;;;0.70;;
41925;SDS011;27615;51.826;5.692;2022-12-07T06:38:57;2.42;;;0.98;;
41925;SDS011;27615;51.826;5.692;2022-12-07T06:41:22;3.33;;;0.80;;
41925;SDS011;27615;51.826;5.692;2022-12-07T06:43:48;3.22;;;0.80;;
41925;SDS011;27615;51.826;5.692;2022-12-07T06:46:14;2.45;;;0.82;;
41925;SDS011;27615;51.826;5.692;2022-12-07T06:48:40;3.83;;;0.77;;
41925;SDS011;27615;51.826;5.692;2022-12-07T06:51:06;1.95;;;0.50;;
41925;SDS011;27615;51.826;5.692;2022-12-07T06:53:32;2.50;;;0.60;;
41925;SDS011;27615;51.826;5.692;2022-12-07T06:55:58;1.58;;;0.60;;
41925;SDS011;27615;51.826;5.692;2022-12-07T06:58:23;2.88;;;0.70;;
41925;SDS011;27615;51.826;5.692;2022-12-07T07:00:49;2.88;;;0.55;;
41925;SDS011;27615;51.826;5.692;2022-12-07T07:03:15;1.90;;;0.85;;
41925;SDS011;27615;51.826;5.692;2022-12-07T07:05:41;3.28;;;0.60;;
41925;SDS011;27615;51.826;5.692;2022-12-07T07:08:07;4.20;;;0.82;;
41925;SDS011;27615;51.826;5.692;2022-12-07T07:10:33;2.53;;;0.80;;
41925;SDS011;27615;51.826;5.692;2022-12-07T07:12:59;1.80;;;0.60;;
41925;SDS011;27615;51.826;5.692;2022-12-07T07:15:24;1.58;;;0.50;;
41925;SDS011;27615;51.826;5.692;2022-12-07T07:17:50;1.67;;;0.70;;
41925;SDS011;27615;51.826;5.692;2022-12-07T07:20:15;2.38;;;0.60;;
41925;SDS011;27615;51.826;5.692;2022-12-07T07:22:41;1.17;;;0.60;;
41925;SDS011;27615;51.826;5.692;2022-12-07T07:25:06;2.92;;;0.63;;
41925;SDS011;27615;51.826;5.692;2022-12-07T07:27:32;0.98;;;0.60;;
41925;SDS011;27615;51.826;5.692;2022-12-07T07:29:58;1.75;;;0.65;;
41925;SDS011;27615;51.826;5.692;2022-12-07T07:32:23;4.38;;;0.85;;
41925;SDS011;27615;51.826;5.692;2022-12-07T07:34:49;3.65;;;0.85;;
41925;SDS011;27615;51.826;5.692;2022-12-07T07:37:14;2.63;;;0.88;;
41925;SDS011;27615;51.826;5.692;2022-12-07T07:39:40;2.63;;;0.68;;
41925;SDS011;27615;51.826;5.692;2022-12-07T07:42:05;2.05;;;0.68;;
41925;SDS011;27615;51.826;5.692;2022-12-07T07:44:32;2.88;;;0.88;;
41925;SDS011;27615;51.826;5.692;2022-12-07T07:46:58;1.58;;;0.60;;
41925;SDS011;27615;51.826;5.692;2022-12-07T07:49:24;1.60;;;0.80;;
41925;SDS011;27615;51.826;5.692;2022-12-07T07:51:50;1.92;;;0.75;;
41925;SDS011;27615;51.826;5.692;2022-12-07T07:54:15;1.92;;;0.60;;
41925;SDS011;27615;51.826;5.692;2022-12-07T07:56:41;2.50;;;0.77;;
41925;SDS011;27615;51.826;5.692;2022-12-07T07:59:09;3.00;;;0.80;;
41925;SDS011;27615;51.826;5.692;2022-12-07T08:01:34;2.00;;;0.50;;
41925;SDS011;27615;51.826;5.692;2022-12-07T08:04:00;1.30;;;0.55;;
41925;SDS011;27615;51.826;5.692;2022-12-07T08:06:26;1.83;;;0.55;;
41925;SDS011;27615;51.826;5.692;2022-12-07T08:08:51;2.60;;;0.65;;
41925;SDS011;27615;51.826;5.692;2022-12-07T08:11:17;1.60;;;0.52;;
41925;SDS011;27615;51.826;5.692;2022-12-07T08:13:44;1.10;;;0.60;;
41925;SDS011;27615;51.826;5.692;2022-12-07T08:16:12;2.10;;;0.90;;
41925;SDS011;27615;51.826;5.692;2022-12-07T08:18:38;3.38;;;0.80;;
41925;SDS011;27615;51.826;5.692;2022-12-07T08:21:05;2.35;;;0.75;;
41925;SDS011;27615;51.826;5.692;2022-12-07T08:23:32;2.30;;;0.80;;
41925;SDS011;27615;51.826;5.692;2022-12-07T08:26:05;2.85;;;0.75;;
41925;SDS011;27615;51.826;5.692;2022-12-07T08:28:33;3.00;;;1.00;;
41925;SDS011;27615;51.826;5.692;2022-12-07T08:30:59;1.55;;;0.80;;
41925;SDS011;27615;51.826;5.692;2022-12-07T08:33:26;1.85;;;0.90;;
41925;SDS011;27615;51.826;5.692;2022-12-07T08:35:51;4.93;;;0.70;;
41925;SDS011;27615;51.826;5.692;2022-12-07T08:38:17;2.50;;;0.90;;
41925;SDS011;27615;51.826;5.692;2022-12-07T08:40:42;3.63;;;1.10;;
41925;SDS011;27615;51.826;5.692;2022-12-07T08:43:08;2.00;;;0.77;;
41925;SDS011;27615;51.826;5.692;2022-12-07T08:45:34;3.75;;;0.90;;
41925;SDS011;27615;51.826;5.692;2022-12-07T08:50:31;4.20;;;0.93;;
41925;SDS011;27615;51.826;5.692;2022-12-07T08:52:57;4.75;;;0.98;;
41925;SDS011;27615;51.826;5.692;2022-12-07T08:55:24;1.90;;;0.70;;
41925;SDS011;27615;51.826;5.692;2022-12-07T08:57:52;3.03;;;0.60;;
41925;SDS011;27615;51.826;5.692;2022-12-07T09:00:18;2.97;;;0.90;;
41925;SDS011;27615;51.826;5.692;2022-12-07T09:02:44;2.45;;;0.85;;
41925;SDS011;27615;51.826;5.692;2022-12-07T09:05:10;1.65;;;0.80;;
41925;SDS011;27615;51.826;5.692;2022-12-07T09:07:36;2.42;;;0.98;;
41925;SDS011;27615;51.826;5.692;2022-12-07T09:10:03;2.40;;;1.05;;
41925;SDS011;27615;51.826;5.692;2022-12-07T09:12:29;4.00;;;1.10;;
41925;SDS011;27615;51.826;5.692;2022-12-07T09:14:55;3.33;;;0.75;;
41925;SDS011;27615;51.826;5.692;2022-12-07T09:17:20;4.40;;;0.70;;
41925;SDS011;27615;51.826;5.692;2022-12-07T09:19:46;3.92;;;0.82;;
41925;SDS011;27615;51.826;5.692;2022-12-07T09:22:11;2.03;;;0.73;;
41925;SDS011;27615;51.826;5.692;2022-12-07T09:24:37;2.85;;;0.85;;
41925;SDS011;27615;51.826;5.692;2022-12-07T09:27:02;2.50;;;0.93;;
41925;SDS011;27615;51.826;5.692;2022-12-07T09:29:28;2.75;;;0.90;;
41925;SDS011;27615;51.826;5.692;2022-12-07T09:31:53;2.60;;;0.70;;
41925;SDS011;27615;51.826;5.692;2022-12-07T09:34:19;4.90;;;0.95;;
41925;SDS011;27615;51.826;5.692;2022-12-07T09:36:45;1.80;;;0.80;;
41925;SDS011;27615;51.826;5.692;2022-12-07T09:39:10;3.45;;;1.08;;
41925;SDS011;27615;51.826;5.692;2022-12-07T09:41:40;5.60;;;1.25;;
41925;SDS011;27615;51.826;5.692;2022-12-07T09:44:10;2.65;;;1.02;;
41925;SDS011;27615;51.826;5.692;2022-12-07T09:46:39;3.58;;;0.98;;
41925;SDS011;27615;51.826;5.692;2022-12-07T09:49:16;5.03;;;1.10;;
41925;SDS011;27615;51.826;5.692;2022-12-07T09:51:47;4.30;;;1.33;;
41925;SDS011;27615;51.826;5.692;2022-12-07T09:54:23;5.35;;;1.20;;
41925;SDS011;27615;51.826;5.692;2022-12-07T09:56:49;2.92;;;1.10;;
41925;SDS011;27615;51.826;5.692;2022-12-07T09:59:17;2.60;;;0.90;;
41925;SDS011;27615;51.826;5.692;2022-12-07T10:01:44;5.07;;;1.35;;
41925;SDS011;27615;51.826;5.692;2022-12-07T10:04:16;4.57;;;1.20;;
41925;SDS011;27615;51.826;5.692;2022-12-07T10:06:47;3.38;;;1.25;;
41925;SDS011;27615;51.826;5.692;2022-12-07T10:09:14;2.92;;;0.98;;
41925;SDS011;27615;51.826;5.692;2022-12-07T10:14:31;2.78;;;0.63;;
41925;SDS011;27615;51.826;5.692;2022-12-07T10:16:58;2.05;;;0.68;;
41925;SDS011;27615;51.826;5.692;2022-12-07T10:19:28;3.50;;;1.02;;
41925;SDS011;27615;51.826;5.692;2022-12-07T10:22:08;2.67;;;0.93;;
41925;SDS011;27615;51.826;5.692;2022-12-07T10:24:36;5.95;;;0.98;;
41925;SDS011;27615;51.826;5.692;2022-12-07T10:27:04;2.97;;;0.55;;
41925;SDS011;27615;51.826;5.692;2022-12-07T10:29:41;5.82;;;1.17;;
41925;SDS011;27615;51.826;5.692;2022-12-07T10:34:40;3.20;;;0.80;;
41925;SDS011;27615;51.826;5.692;2022-12-07T10:39:41;4.50;;;0.82;;
41925;SDS011;27615;51.826;5.692;2022-12-07T10:42:26;2.58;;;0.60;;
41925;SDS011;27615;51.826;5.692;2022-12-07T10:56:09;3.67;;;0.80;;
41925;SDS011;27615;51.826;5.692;2022-12-07T10:59:02;3.47;;;0.60;;
41925;SDS011;27615;51.826;5.692;2022-12-07T11:04:53;3.70;;;0.77;;
41925;SDS011;27615;51.826;5.692;2022-12-07T11:10:41;5.30;;;1.35;;
41925;SDS011;27615;51.826;5.692;2022-12-07T11:13:18;6.75;;;1.48;;
41925;SDS011;27615;51.826;5.692;2022-12-07T11:21:09;5.03;;;0.60;;
41925;SDS011;27615;51.826;5.692;2022-12-07T11:37:51;3.63;;;1.50;;
41925;SDS011;27615;51.826;5.692;2022-12-07T11:40:27;4.85;;;0.80;;
41925;SDS011;27615;51.826;5.692;2022-12-07T11:43:04;3.55;;;0.85;;
41925;SDS011;27615;51.826;5.692;2022-12-07T11:45:41;3.93;;;0.70;;
41925;SDS011;27615;51.826;5.692;2022-12-07T11:48:21;3.05;;;0.90;;
41925;SDS011;27615;51.826;5.692;2022-12-07T11:50:57;2.20;;;0.70;;
41925;SDS011;27615;51.826;5.692;2022-12-07T11:56:15;3.78;;;1.00;;
41925;SDS011;27615;51.826;5.692;2022-12-07T12:06:35;5.32;;;1.20;;
41925;SDS011;27615;51.826;5.692;2022-12-07T12:12:18;3.20;;;0.82;;
41925;SDS011;27615;51.826;5.692;2022-12-07T12:14:59;3.90;;;1.23;;
41925;SDS011;27615;51.826;5.692;2022-12-07T12:20:49;2.05;;;0.90;;
41925;SDS011;27615;51.826;5.692;2022-12-07T12:23:40;3.72;;;0.95;;
41925;SDS011;27615;51.826;5.692;2022-12-07T12:26:19;2.83;;;1.45;;
41925;SDS011;27615;51.826;5.692;2022-12-07T12:29:00;4.60;;;1.00;;
41925;SDS011;27615;51.826;5.692;2022-12-07T12:33:58;5.50;;;1.13;;
41925;SDS011;27615;51.826;5.692;2022-12-07T12:39:15;4.38;;;0.70;;
41925;SDS011;27615;51.826;5.692;2022-12-07T12:46:53;2.50;;;0.43;;
41925;SDS011;27615;51.826;5.692;2022-12-07T12:51:57;2.72;;;0.50;;
41925;SDS011;27615;51.826;5.692;2022-12-07T12:55:26;1.40;;;0.40;;
41925;SDS011;27615;51.826;5.692;2022-12-07T12:57:32;1.65;;;0.40;;
41925;SDS011;27615;51.826;5.692;2022-12-07T12:59:58;2.13;;;1.15;;
41925;SDS011;27615;51.826;5.692;2022-12-07T13:02:29;1.63;;;0.30;;
41925;SDS011;27615;51.826;5.692;2022-12-07T13:05:14;1.25;;;0.30;;
41925;SDS011;27615;51.826;5.692;2022-12-07T13:10:24;2.05;;;0.63;;
41925;SDS011;27615;51.826;5.692;2022-12-07T13:12:57;1.92;;;0.40;;
41925;SDS011;27615;51.826;5.692;2022-12-07T13:15:36;3.33;;;0.40;;
41925;SDS011;27615;51.826;5.692;2022-12-07T13:20:49;1.98;;;0.55;;
41925;SDS011;27615;51.826;5.692;2022-12-07T13:23:17;0.65;;;0.30;;
41925;SDS011;27615;51.826;5.692;2022-12-07T13:26:12;0.50;;;0.40;;
41925;SDS011;27615;51.826;5.692;2022-12-07T13:28:42;2.00;;;0.43;;
41925;SDS011;27615;51.826;5.692;2022-12-07T13:31:34;1.42;;;0.50;;
41925;SDS011;27615;51.826;5.692;2022-12-07T13:34:03;2.28;;;0.55;;
41925;SDS011;27615;51.826;5.692;2022-12-07T13:36:33;4.53;;;0.60;;
41925;SDS011;27615;51.826;5.692;2022-12-07T13:41:45;2.80;;;0.93;;
41925;SDS011;27615;51.826;5.692;2022-12-07T13:44:16;2.42;;;0.57;;
41925;SDS011;27615;51.826;5.692;2022-12-07T13:49:30;2.63;;;0.70;;
41925;SDS011;27615;51.826;5.692;2022-12-07T13:52:13;3.58;;;0.65;;
41925;SDS011;27615;51.826;5.692;2022-12-07T13:54:54;4.05;;;0.70;;
41925;SDS011;27615;51.826;5.692;2022-12-07T13:57:39;4.75;;;0.75;;
41925;SDS011;27615;51.826;5.692;2022-12-07T14:00:06;1.67;;;0.50;;
41925;SDS011;27615;51.826;5.692;2022-12-07T14:03:00;3.88;;;0.70;;
41925;SDS011;27615;51.826;5.692;2022-12-07T14:05:28;3.20;;;0.77;;
41925;SDS011;27615;51.826;5.692;2022-12-07T14:07:59;2.85;;;0.60;;
41925;SDS011;27615;51.826;5.692;2022-12-07T14:13:22;4.88;;;0.80;;
41925;SDS011;27615;51.826;5.692;2022-12-07T14:15:59;4.03;;;0.80;;
41925;SDS011;27615;51.826;5.692;2022-12-07T14:18:27;2.78;;;0.60;;
41925;SDS011;27615;51.826;5.692;2022-12-07T14:21:04;1.73;;;0.52;;
41925;SDS011;27615;51.826;5.692;2022-12-07T14:23:40;2.33;;;0.60;;
41925;SDS011;27615;51.826;5.692;2022-12-07T14:26:20;3.58;;;0.70;;
41925;SDS011;27615;51.826;5.692;2022-12-07T14:28:46;3.17;;;0.70;;
41925;SDS011;27615;51.826;5.692;2022-12-07T14:33:39;2.58;;;0.80;;
41925;SDS011;27615;51.826;5.692;2022-12-07T14:36:05;3.28;;;0.70;;
41925;SDS011;27615;51.826;5.692;2022-12-07T14:38:33;3.08;;;0.75;;
41925;SDS011;27615;51.826;5.692;2022-12-07T14:40:59;5.63;;;1.20;;
41925;SDS011;27615;51.826;5.692;2022-12-07T14:43:45;6.10;;;0.98;;
41925;SDS011;27615;51.826;5.692;2022-12-07T14:46:10;2.45;;;0.60;;
41925;SDS011;27615;51.826;5.692;2022-12-07T14:48:36;2.55;;;0.70;;
41925;SDS011;27615;51.826;5.692;2022-12-07T14:51:01;2.45;;;0.65;;
41925;SDS011;27615;51.826;5.692;2022-12-07T14:53:29;3.08;;;0.65;;
41925;SDS011;27615;51.826;5.692;2022-12-07T14:55:59;5.03;;;0.63;;
41925;SDS011;27615;51.826;5.692;2022-12-07T14:58:24;2.10;;;0.50;;
41925;SDS011;27615;51.826;5.692;2022-12-07T15:00:50;2.08;;;0.57;;
41925;SDS011;27615;51.826;5.692;2022-12-07T15:03:15;2.95;;;0.60;;
41925;SDS011;27615;51.826;5.692;2022-12-07T15:05:41;2.35;;;0.40;;
41925;SDS011;27615;51.826;5.692;2022-12-07T15:08:08;2.97;;;0.40;;
41925;SDS011;27615;51.826;5.692;2022-12-07T15:10:35;3.17;;;0.47;;
41925;SDS011;27615;51.826;5.692;2022-12-07T15:13:03;2.88;;;0.38;;
41925;SDS011;27615;51.826;5.692;2022-12-07T15:15:48;1.92;;;0.30;;
41925;SDS011;27615;51.826;5.692;2022-12-07T15:18:15;2.20;;;0.40;;
41925;SDS011;27615;51.826;5.692;2022-12-07T15:20:42;1.08;;;0.40;;
41925;SDS011;27615;51.826;5.692;2022-12-07T15:23:08;1.10;;;0.30;;
41925;SDS011;27615;51.826;5.692;2022-12-07T15:25:34;1.17;;;0.40;;
41925;SDS011;27615;51.826;5.692;2022-12-07T15:27:59;2.30;;;0.50;;
41925;SDS011;27615;51.826;5.692;2022-12-07T15:30:25;1.73;;;0.45;;
41925;SDS011;27615;51.826;5.692;2022-12-07T15:32:52;0.73;;;0.30;;
41925;SDS011;27615;51.826;5.692;2022-12-07T15:35:19;0.55;;;0.13;;
41925;SDS011;27615;51.826;5.692;2022-12-07T15:37:46;1.55;;;0.30;;
41925;SDS011;27615;51.826;5.692;2022-12-07T15:40:12;1.27;;;0.20;;
41925;SDS011;27615;51.826;5.692;2022-12-07T15:42:39;4.57;;;0.75;;
41925;SDS011;27615;51.826;5.692;2022-12-07T15:45:05;1.85;;;0.20;;
41925;SDS011;27615;51.826;5.692;2022-12-07T15:47:39;1.05;;;0.20;;
41925;SDS011;27615;51.826;5.692;2022-12-07T15:50:11;1.08;;;0.20;;
41925;SDS011;27615;51.826;5.692;2022-12-07T15:52:38;0.73;;;0.30;;
41925;SDS011;27615;51.826;5.692;2022-12-07T15:55:05;1.23;;;0.32;;
41925;SDS011;27615;51.826;5.692;2022-12-07T15:57:31;1.25;;;0.30;;
41925;SDS011;27615;51.826;5.692;2022-12-07T16:00:02;1.70;;;0.40;;
41925;SDS011;27615;51.826;5.692;2022-12-07T16:02:33;1.00;;;0.30;;
41925;SDS011;27615;51.826;5.692;2022-12-07T16:04:59;1.60;;;0.30;;
41925;SDS011;27615;51.826;5.692;2022-12-07T16:07:24;0.50;;;0.30;;
41925;SDS011;27615;51.826;5.692;2022-12-07T16:09:50;1.27;;;0.30;;
41925;SDS011;27615;51.826;5.692;2022-12-07T16:12:15;1.75;;;0.30;;
41925;SDS011;27615;51.826;5.692;2022-12-07T16:14:41;1.85;;;0.50;;
41925;SDS011;27615;51.826;5.692;2022-12-07T16:17:07;0.68;;;0.32;;
41925;SDS011;27615;51.826;5.692;2022-12-07T16:19:34;1.30;;;0.70;;
41925;SDS011;27615;51.826;5.692;2022-12-07T16:22:00;0.75;;;0.30;;
41925;SDS011;27615;51.826;5.692;2022-12-07T16:24:26;1.83;;;0.60;;
41925;SDS011;27615;51.826;5.692;2022-12-07T16:26:52;1.20;;;0.40;;
41925;SDS011;27615;51.826;5.692;2022-12-07T16:29:18;1.30;;;0.50;;
41925;SDS011;27615;51.826;5.692;2022-12-07T16:31:45;1.02;;;0.50;;
41925;SDS011;27615;51.826;5.692;2022-12-07T16:34:11;0.88;;;0.50;;
41925;SDS011;27615;51.826;5.692;2022-12-07T16:36:36;0.80;;;0.40;;
41925;SDS011;27615;51.826;5.692;2022-12-07T16:39:02;1.83;;;0.50;;
41925;SDS011;27615;51.826;5.692;2022-12-07T16:41:29;0.85;;;0.40;;
41925;SDS011;27615;51.826;5.692;2022-12-07T16:43:55;1.67;;;0.50;;
41925;SDS011;27615;51.826;5.692;2022-12-07T16:46:20;3.38;;;0.60;;
41925;SDS011;27615;51.826;5.692;2022-12-07T16:48:46;1.38;;;0.60;;
41925;SDS011;27615;51.826;5.692;2022-12-07T16:51:12;5.80;;;1.20;;
41925;SDS011;27615;51.826;5.692;2022-12-07T16:53:39;2.67;;;0.90;;
41925;SDS011;27615;51.826;5.692;2022-12-07T16:56:13;2.97;;;1.00;;
41925;SDS011;27615;51.826;5.692;2022-12-07T16:58:41;2.10;;;1.20;;
41925;SDS011;27615;51.826;5.692;2022-12-07T17:01:14;2.85;;;0.98;;
41925;SDS011;27615;51.826;5.692;2022-12-07T17:03:42;5.35;;;1.20;;